Time;durP1;ratioP1;P1;durP2;ratioP2;P2;SDS_P1;SDS_P2;PMS_P1;PMS_P2;Temp;Humidity;BMP_temperature;BMP_pressure;BME280_temperature;BME280_humidity;BME280_pressure;Samples;Min_cycle;Max_cycle;Signal;HPM_P1;HPM_P2
2023/10/15 00:01:55;;;;;;;7.68;3.15;;;22.50;99.30;;;;;;5092455;28;20118;-72
2023/10/15 00:04:22;;;;;;;9.32;2.90;;;22.40;99.30;;;;;;5092180;28;20031;-70
2023/10/15 00:06:49;;;;;;;7.45;3.28;;;22.40;99.20;;;;;;5092281;28;20020;-71
2023/10/15 00:09:16;;;;;;;7.97;3.33;;;22.40;99.00;;;;;;5092593;28;20112;-73
2023/10/15 00:11:43;;;;;;;12.57;3.58;;;22.40;98.90;;;;;;5073529;28;20417;-73
2023/10/15 00:14:09;;;;;;;8.13;3.40;;;22.50;99.00;;;;;;5092218;28;20028;-72
2023/10/15 00:16:35;;;;;;;15.30;3.40;;;22.40;99.30;;;;;;5092271;28;20024;-72
2023/10/15 00:19:10;;;;;;;12.15;3.45;;;22.40;99.30;;;;;;5092058;28;20073;-72
2023/10/15 00:21:38;;;;;;;8.27;2.95;;;22.30;99.40;;;;;;5092115;28;20021;-72
2023/10/15 00:24:10;;;;;;;9.30;3.40;;;22.30;99.40;;;;;;5092322;28;20047;-72
2023/10/15 00:26:38;;;;;;;8.32;3.08;;;22.30;99.20;;;;;;5073501;28;20028;-73
2023/10/15 00:29:08;;;;;;;8.32;3.25;;;22.30;99.20;;;;;;5091746;28;20473;-72
2023/10/15 00:31:35;;;;;;;6.75;3.10;;;22.30;99.10;;;;;;5091895;28;20165;-72
2023/10/15 00:34:01;;;;;;;13.82;3.65;;;22.30;99.10;;;;;;5091590;28;20020;-72
2023/10/15 00:36:27;;;;;;;8.98;3.15;;;22.30;99.30;;;;;;5091611;28;20047;-72
2023/10/15 00:38:53;;;;;;;14.35;3.42;;;22.20;99.50;;;;;;5091308;28;20059;-73
2023/10/15 00:41:20;;;;;;;9.25;3.25;;;22.20;99.30;;;;;;5091376;28;20582;-71
2023/10/15 00:43:55;;;;;;;11.98;3.00;;;22.20;99.30;;;;;;5091840;28;20050;-71
2023/10/15 00:46:24;;;;;;;8.88;3.22;;;22.20;99.10;;;;;;5092523;28;20036;-73
2023/10/15 00:48:51;;;;;;;11.50;3.10;;;22.20;99.20;;;;;;5092126;28;20036;-72
2023/10/15 00:51:20;;;;;;;;;;;22.20;99.10;;;;;;5092445;28;20024;-74
2023/10/15 00:53:58;;;;;;;7.30;3.05;;;22.10;99.10;;;;;;5091611;28;19904;-72
2023/10/15 00:56:33;;;;;;;9.38;3.00;;;22.10;99.00;;;;;;5091316;28;20028;-74
2023/10/15 01:01:42;;;;;;;13.63;3.42;;;22.10;98.80;;;;;;5091460;28;20027;-73
2023/10/15 01:04:15;;;;;;;9.40;2.90;;;22.20;98.70;;;;;;5091273;28;20063;-73
2023/10/15 01:06:48;;;;;;;10.23;2.80;;;22.20;98.40;;;;;;5073008;28;20118;-72
2023/10/15 01:11:50;;;;;;;9.77;2.80;;;22.40;98.00;;;;;;5091026;28;20039;-74
2023/10/15 01:14:33;;;;;;;8.00;2.80;;;22.50;97.90;;;;;;5091618;28;20028;-72
2023/10/15 01:17:00;;;;;;;8.70;2.83;;;22.50;97.90;;;;;;5091116;28;20314;-73
2023/10/15 01:19:34;;;;;;;9.10;2.17;;;22.50;98.00;;;;;;5072970;28;20361;-72
2023/10/15 01:22:02;;;;;;;10.73;2.97;;;22.50;98.20;;;;;;5091108;28;20112;-72
2023/10/15 01:24:32;;;;;;;9.00;2.75;;;22.40;98.20;;;;;;5091101;28;20032;-72
2023/10/15 01:27:09;;;;;;;8.38;3.17;;;22.30;98.40;;;;;;5072478;28;20034;-72
2023/10/15 01:29:44;;;;;;;7.60;3.05;;;22.20;98.50;;;;;;5090921;28;20051;-71
2023/10/15 01:32:18;;;;;;;5.80;2.78;;;22.20;98.40;;;;;;5090775;28;20042;-71
2023/10/15 01:34:45;;;;;;;11.77;3.22;;;22.30;98.10;;;;;;5090891;28;20089;-73
2023/10/15 01:37:21;;;;;;;11.05;3.00;;;22.40;98.00;;;;;;5090911;28;20050;-72
2023/10/15 01:39:48;;;;;;;14.35;2.85;;;22.40;97.90;;;;;;5090827;28;20102;-72
2023/10/15 01:45:16;;;;;;;9.90;2.85;;;22.40;97.90;;;;;;5090836;28;20028;-72
2023/10/15 01:47:56;;;;;;;10.75;3.30;;;22.40;97.80;;;;;;5091172;28;20073;-71
2023/10/15 01:50:33;;;;;;;8.60;2.58;;;22.50;97.60;;;;;;5091018;28;20431;-73
2023/10/15 01:53:01;;;;;;;;;;;22.40;97.70;;;;;;5091344;28;20027;-71
2023/10/15 01:55:29;;;;;;;6.82;2.90;;;22.40;97.70;;;;;;5072265;28;19955;-72
2023/10/15 01:58:00;;;;;;;10.52;2.45;;;22.40;97.60;;;;;;5090645;28;20463;-72
2023/10/15 02:00:43;;;;;;;7.43;2.65;;;22.40;97.70;;;;;;5072317;28;20119;-72
2023/10/15 02:03:10;;;;;;;8.93;2.60;;;22.40;97.70;;;;;;5090803;28;20029;-72
2023/10/15 02:05:44;;;;;;;9.30;2.45;;;22.40;97.60;;;;;;5090426;28;20024;-73
2023/10/15 02:08:12;;;;;;;12.63;2.70;;;22.50;97.20;;;;;;5090514;28;20064;-71
2023/10/15 02:10:46;;;;;;;8.35;2.55;;;22.50;97.30;;;;;;5090716;28;20384;-72
2023/10/15 02:13:16;;;;;;;7.80;2.83;;;22.50;97.30;;;;;;5092478;28;20176;-72
2023/10/15 02:15:49;;;;;;;12.13;3.05;;;22.60;97.20;;;;;;5090480;28;20028;-72
2023/10/15 02:18:18;;;;;;;7.60;2.72;;;22.50;97.40;;;;;;5090380;28;20332;-71
2023/10/15 02:20:59;;;;;;;11.90;2.95;;;22.40;97.60;;;;;;5091501;28;20078;-72
2023/10/15 02:23:25;;;;;;;12.52;3.05;;;22.30;98.00;;;;;;5094367;28;20111;-72
2023/10/15 02:26:00;;;;;;;10.15;2.70;;;22.20;97.90;;;;;;5094013;28;20036;-73
2023/10/15 02:28:31;;;;;;;9.63;2.70;;;22.10;98.10;;;;;;5094206;28;20027;-72
2023/10/15 02:31:46;;;;;;;12.68;2.88;;;22.10;98.20;;;;;;5094249;28;20487;-72
2023/10/15 02:33:47;;;;;;;15.32;3.17;;;22.10;98.30;;;;;;5086252;28;20077;-71
2023/10/15 02:36:16;;;;;;;9.88;2.88;;;22.00;98.60;;;;;;5093866;28;20040;-71
2023/10/15 02:38:52;;;;;;;7.68;2.70;;;22.00;98.50;;;;;;5071794;28;20064;-71
2023/10/15 02:41:20;;;;;;;7.57;2.75;;;21.90;98.60;;;;;;5073557;28;20589;-71
2023/10/15 02:43:51;;;;;;;10.63;3.08;;;21.90;98.60;;;;;;5073564;28;20036;-71
2023/10/15 02:46:39;;;;;;;9.45;2.80;;;21.80;98.80;;;;;;5072046;28;20536;-72
2023/10/15 02:49:09;;;;;;;;;;;21.80;99.00;;;;;;5073400;28;20074;-72
2023/10/15 02:51:35;;;;;;;9.68;2.65;;;21.80;98.80;;;;;;5073810;28;20305;-71
2023/10/15 02:54:18;;;;;;;11.38;2.97;;;21.80;98.90;;;;;;5072307;28;20028;-71
2023/10/15 02:56:45;;;;;;;6.28;2.60;;;21.80;98.70;;;;;;5073246;28;20028;-71
2023/10/15 02:59:16;;;;;;;12.98;3.20;;;21.80;98.80;;;;;;5073164;28;20109;-72
2023/10/15 03:01:45;;;;;;;7.38;2.60;;;21.80;98.90;;;;;;5073567;28;20167;-71
2023/10/15 03:04:12;;;;;;;7.60;2.75;;;21.70;99.20;;;;;;5071533;28;20338;-72
2023/10/15 03:06:41;;;;;;;9.38;3.00;;;21.60;99.10;;;;;;5073506;28;20044;-72
2023/10/15 03:09:11;;;;;;;7.68;3.03;;;21.60;99.00;;;;;;5072923;28;20027;-71
2023/10/15 03:11:38;;;;;;;9.75;3.00;;;21.60;99.20;;;;;;5072739;28;20025;-71
2023/10/15 03:14:06;;;;;;;10.23;2.88;;;21.60;98.90;;;;;;5073111;28;20021;-71
2023/10/15 03:16:34;;;;;;;8.68;3.17;;;21.60;98.90;;;;;;5072873;28;20068;-71
2023/10/15 03:19:09;;;;;;;11.45;3.17;;;21.60;99.00;;;;;;5071232;28;20516;-71
2023/10/15 03:21:39;;;;;;;6.80;2.65;;;21.60;99.00;;;;;;5073248;28;20059;-72
2023/10/15 03:24:05;;;;;;;8.50;2.72;;;21.60;99.00;;;;;;5072893;28;20050;-71
2023/10/15 03:26:34;;;;;;;9.77;2.60;;;21.60;98.90;;;;;;5072504;28;20048;-71
2023/10/15 03:29:13;;;;;;;9.07;3.03;;;21.70;98.80;;;;;;5072449;28;20493;-73
2023/10/15 03:31:45;;;;;;;13.73;3.20;;;21.70;98.80;;;;;;5072385;28;20028;-72
2023/10/15 03:36:50;;;;;;;9.93;2.67;;;21.70;98.50;;;;;;5072590;28;20028;-72
2023/10/15 03:39:24;;;;;;;8.52;3.10;;;21.70;98.50;;;;;;5072164;28;20056;-71
2023/10/15 03:42:09;;;;;;;8.55;2.90;;;21.70;98.40;;;;;;5072515;28;20078;-71
2023/10/15 03:44:43;;;;;;;8.80;2.80;;;21.70;98.40;;;;;;5072560;28;20437;-71
2023/10/15 03:47:10;;;;;;;7.43;2.92;;;21.70;98.40;;;;;;5072284;28;20376;-71
2023/10/15 03:49:37;;;;;;;;;;;21.70;98.40;;;;;;5071288;28;20025;-71
2023/10/15 03:52:08;;;;;;;9.07;3.03;;;21.70;98.40;;;;;;5072550;28;19911;-71
2023/10/15 03:54:37;;;;;;;7.82;3.03;;;21.70;98.60;;;;;;5070761;28;20071;-72
2023/10/15 03:57:06;;;;;;;10.93;3.35;;;21.60;98.60;;;;;;5070410;28;20091;-72
2023/10/15 03:59:42;;;;;;;7.22;2.50;;;21.60;98.80;;;;;;5072588;28;20398;-72
2023/10/15 04:02:14;;;;;;;8.18;3.47;;;21.50;98.70;;;;;;5072261;28;20380;-71
2023/10/15 04:04:40;;;;;;;6.25;3.00;;;21.50;98.60;;;;;;5070628;28;20498;-71
2023/10/15 04:07:19;;;;;;;12.55;3.05;;;21.50;98.90;;;;;;5071924;28;20028;-72
2023/10/15 04:09:45;;;;;;;13.43;3.22;;;21.50;98.80;;;;;;5071937;28;20473;-71
2023/10/15 04:12:11;;;;;;;10.48;3.00;;;21.50;98.70;;;;;;5071819;28;20032;-72
2023/10/15 04:14:43;;;;;;;8.57;2.90;;;21.50;98.90;;;;;;5072389;28;20029;-72
2023/10/15 04:17:09;;;;;;;13.32;3.50;;;21.60;98.80;;;;;;5071600;28;20503;-71
2023/10/15 04:19:36;;;;;;;8.90;3.10;;;21.50;98.80;;;;;;5072375;28;20476;-72
2023/10/15 04:22:14;;;;;;;11.35;3.00;;;21.40;98.90;;;;;;5071748;28;20051;-71
2023/10/15 04:24:46;;;;;;;10.32;3.08;;;21.40;99.00;;;;;;5071957;28;20021;-72
2023/10/15 04:27:17;;;;;;;8.52;3.00;;;21.40;99.10;;;;;;5070066;28;20040;-73
2023/10/15 04:29:55;;;;;;;11.98;3.15;;;21.40;98.90;;;;;;5070243;28;20103;-72
2023/10/15 04:35:01;;;;;;;13.95;3.00;;;21.40;99.10;;;;;;5071679;28;20125;-73
2023/10/15 04:37:53;;;;;;;8.18;3.00;;;21.40;99.00;;;;;;5071393;28;20105;-74
2023/10/15 04:40:23;;;;;;;9.07;2.90;;;21.40;99.00;;;;;;5069129;28;20059;-72
2023/10/15 04:42:52;;;;;;;11.35;3.30;;;21.30;99.20;;;;;;5071500;28;20362;-72
2023/10/15 04:48:01;;;;;;;6.85;2.83;;;21.30;99.20;;;;;;5071436;28;20046;-72
2023/10/15 04:50:29;;;;;;;10.65;2.72;;;21.20;99.20;;;;;;5071444;28;20155;-72
2023/10/15 04:53:12;;;;;;;7.22;2.83;;;21.20;99.30;;;;;;5071306;28;20427;-73
2023/10/15 04:55:40;;;;;;;12.23;3.40;;;21.20;99.10;;;;;;5071794;28;20024;-72
2023/10/15 04:58:06;;;;;;;7.70;3.13;;;21.40;98.60;;;;;;5071158;28;20037;-72
2023/10/15 05:00:33;;;;;;;15.10;2.97;;;21.40;98.50;;;;;;5071514;28;20028;-72
2023/10/15 05:02:59;;;;;;;12.88;3.20;;;21.50;98.40;;;;;;5071520;28;20027;-72
2023/10/15 05:05:26;;;;;;;13.23;3.40;;;21.50;98.30;;;;;;5071569;28;20020;-72
2023/10/15 05:07:57;;;;;;;14.18;3.08;;;21.50;98.50;;;;;;5069577;28;20021;-73
2023/10/15 05:10:23;;;;;;;9.45;3.20;;;21.50;98.40;;;;;;5070934;28;20036;-72
2023/10/15 05:12:51;;;;;;;;;;;21.50;98.30;;;;;;5071908;28;20024;-73
2023/10/15 05:15:18;;;;;;;13.60;3.05;;;21.60;98.00;;;;;;5071175;28;20019;-72
2023/10/15 05:17:47;;;;;;;15.60;3.63;;;21.70;98.00;;;;;;5070864;28;20086;-73
2023/10/15 05:20:14;;;;;;;13.23;3.15;;;21.70;98.00;;;;;;5069480;28;20341;-73
2023/10/15 05:22:40;;;;;;;;;;;21.70;97.90;;;;;;5071330;28;20032;-72
2023/10/15 05:25:15;;;;;;;;;;;21.80;98.00;;;;;;5071417;28;20371;-72
2023/10/15 05:27:44;;;;;;;11.95;2.90;;;21.80;98.00;;;;;;5071089;28;20040;-72
2023/10/15 05:30:12;;;;;;;5.85;2.75;;;21.80;97.90;;;;;;5069296;28;20091;-73
2023/10/15 05:32:38;;;;;;;9.23;3.20;;;21.90;97.90;;;;;;5070689;28;20025;-72
2023/10/15 05:35:08;;;;;;;9.80;3.03;;;21.90;97.90;;;;;;5070808;28;20039;-71
2023/10/15 05:37:39;;;;;;;8.75;3.20;;;21.90;97.90;;;;;;5070601;28;20571;-72
2023/10/15 05:40:06;;;;;;;10.90;3.70;;;21.90;98.00;;;;;;5085576;28;20066;-71
2023/10/15 05:42:34;;;;;;;10.75;3.05;;;21.90;98.30;;;;;;5090649;28;20020;-72
2023/10/15 05:45:00;;;;;;;11.80;3.78;;;22.40;98.30;;;;;;5090780;28;20117;-71
2023/10/15 05:47:26;;;;;;;7.72;3.35;;;23.20;97.80;;;;;;5090791;28;20464;-71
2023/10/15 05:49:55;;;;;;;14.98;3.50;;;24.10;97.10;;;;;;5090699;28;20429;-71
2023/10/15 05:52:23;;;;;;;9.52;3.13;;;24.80;96.40;;;;;;5072352;28;20028;-71
2023/10/15 05:54:53;;;;;;;11.35;3.42;;;25.70;95.80;;;;;;5091052;28;20467;-72
2023/10/15 05:57:21;;;;;;;12.07;3.50;;;26.60;95.30;;;;;;5094044;28;20540;-71
2023/10/15 05:59:49;;;;;;;14.10;3.17;;;27.80;94.20;;;;;;5094703;28;20059;-71
2023/10/15 06:02:15;;;;;;;15.65;3.60;;;28.40;93.60;;;;;;5094718;28;20484;-72
2023/10/15 06:04:43;;;;;;;11.30;3.80;;;29.10;92.60;;;;;;5094473;28;20020;-71
2023/10/15 06:07:13;;;;;;;12.80;3.10;;;29.50;92.20;;;;;;5094455;28;20026;-71
2023/10/15 06:09:39;;;;;;;13.80;3.60;;;30.80;90.80;;;;;;5094982;28;20032;-71
2023/10/15 06:12:06;;;;;;;14.75;3.35;;;31.40;88.90;;;;;;5094208;28;20103;-71
2023/10/15 06:14:32;;;;;;;12.80;3.60;;;31.80;88.90;;;;;;5094498;28;20081;-72
2023/10/15 06:17:00;;;;;;;12.93;3.78;;;32.00;85.80;;;;;;5094125;28;20063;-72
2023/10/15 06:19:26;;;;;;;11.82;3.30;;;32.90;83.80;;;;;;5094443;28;20020;-71
2023/10/15 06:21:53;;;;;;;13.88;3.60;;;32.80;81.50;;;;;;5094096;28;20085;-70
2023/10/15 06:24:19;;;;;;;23.58;3.55;;;33.60;80.00;;;;;;5094138;28;20103;-73
2023/10/15 06:26:45;;;;;;;21.63;4.22;;;33.90;77.30;;;;;;5094479;28;20049;-71
2023/10/15 06:29:13;;;;;;;22.38;3.53;;;34.60;75.40;;;;;;5094113;28;20039;-72
2023/10/15 06:31:39;;;;;;;12.52;3.45;;;34.60;74.30;;;;;;5094083;28;20043;-72
2023/10/15 06:34:08;;;;;;;13.15;3.25;;;34.20;74.10;;;;;;5094294;28;20020;-72
2023/10/15 06:36:34;;;;;;;16.60;2.85;;;34.40;73.20;;;;;;5094299;28;20031;-72
2023/10/15 06:39:00;;;;;;;11.52;2.92;;;35.80;70.40;;;;;;5093771;28;20105;-72
2023/10/15 06:41:27;;;;;;;15.18;3.00;;;34.90;68.90;;;;;;5094030;28;20024;-71
2023/10/15 06:43:53;;;;;;;6.88;2.75;;;35.60;67.70;;;;;;5094200;28;20433;-72
2023/10/15 06:46:23;;;;;;;11.52;3.20;;;36.10;65.40;;;;;;5093874;28;20028;-71
2023/10/15 06:48:49;;;;;;;14.10;3.35;;;36.00;64.00;;;;;;5094247;28;20024;-72
2023/10/15 06:51:17;;;;;;;6.90;2.70;;;36.10;64.10;;;;;;5094031;28;20060;-72
2023/10/15 06:53:44;;;;;;;12.23;3.20;;;36.30;63.10;;;;;;5093761;28;20020;-72
2023/10/15 06:56:10;;;;;;;11.32;2.58;;;35.60;61.90;;;;;;5093707;28;20529;-73
2023/10/15 06:58:36;;;;;;;7.93;2.80;;;35.60;63.00;;;;;;5093572;28;20044;-72
2023/10/15 07:01:02;;;;;;;8.95;2.60;;;36.30;61.90;;;;;;5093550;28;20024;-72
2023/10/15 07:03:28;;;;;;;13.10;2.95;;;36.80;61.00;;;;;;5093752;28;20329;-72
2023/10/15 07:05:54;;;;;;;8.75;2.30;;;36.70;60.30;;;;;;5093526;28;20016;-72
2023/10/15 07:08:21;;;;;;;10.38;2.92;;;37.00;59.50;;;;;;5093542;28;20102;-72
2023/10/15 07:10:49;;;;;;;8.18;2.92;;;37.40;59.00;;;;;;5074667;28;20027;-72
2023/10/15 07:13:17;;;;;;;10.52;3.17;;;37.60;58.30;;;;;;5093188;28;20058;-72
2023/10/15 07:15:45;;;;;;;13.85;4.38;;;37.70;58.60;;;;;;5093195;28;20016;-72
2023/10/15 07:18:12;;;;;;;10.65;3.78;;;37.30;58.30;;;;;;5074757;28;20043;-71
2023/10/15 07:20:39;;;;;;;12.52;4.25;;;36.80;58.60;;;;;;5093086;28;20024;-72
2023/10/15 07:23:05;;;;;;;14.18;4.32;;;36.80;58.30;;;;;;5093086;28;20029;-71
2023/10/15 07:25:34;;;;;;;20.77;7.03;;;36.40;58.80;;;;;;5092789;28;20028;-71
2023/10/15 07:28:01;;;;;;;13.60;6.38;;;34.90;59.60;;;;;;5093208;28;20066;-73
2023/10/15 07:30:28;;;;;;;25.85;7.13;;;33.80;61.70;;;;;;5092953;28;20024;-73
2023/10/15 07:32:57;;;;;;;17.48;6.40;;;33.20;63.20;;;;;;5092766;28;20020;-71
2023/10/15 07:35:25;;;;;;;24.85;6.50;;;32.70;64.00;;;;;;5093048;28;20020;-73
2023/10/15 07:37:52;;;;;;;18.65;6.00;;;32.30;64.50;;;;;;5092830;28;20124;-72
2023/10/15 07:40:21;;;;;;;13.23;5.70;;;31.80;65.70;;;;;;5092629;28;20069;-73
2023/10/15 07:42:49;;;;;;;14.43;4.75;;;31.70;65.60;;;;;;5092802;28;20059;-73
2023/10/15 07:45:16;;;;;;;9.55;3.35;;;31.70;65.20;;;;;;5093144;28;20425;-71
2023/10/15 07:47:43;;;;;;;16.83;3.75;;;31.30;65.40;;;;;;5092529;28;20031;-71
2023/10/15 07:50:17;;;;;;;14.55;3.88;;;31.10;66.00;;;;;;5092315;28;20408;-71
2023/10/15 07:52:48;;;;;;;11.73;4.25;;;31.20;66.80;;;;;;5092885;28;20046;-72
2023/10/15 07:55:14;;;;;;;14.43;4.65;;;30.90;68.40;;;;;;5092509;28;20028;-71
2023/10/15 07:57:40;;;;;;;11.73;3.38;;;31.00;68.40;;;;;;5091814;28;20048;-71
2023/10/15 08:00:07;;;;;;;;;;;31.00;68.00;;;;;;5092416;28;20471;-72
2023/10/15 08:02:35;;;;;;;12.25;3.85;;;30.80;68.00;;;;;;5074911;28;20229;-72
2023/10/15 08:05:01;;;;;;;10.55;3.95;;;30.70;69.60;;;;;;5092140;28;20376;-72
2023/10/15 08:07:28;;;;;;;;;;;30.60;70.30;;;;;;5092549;28;20028;-72
2023/10/15 08:09:54;;;;;;;17.23;4.78;;;30.60;70.20;;;;;;5073699;28;19952;-73
2023/10/15 08:12:21;;;;;;;14.05;4.57;;;30.40;70.60;;;;;;5073858;28;20039;-72
2023/10/15 08:14:47;;;;;;;10.23;4.45;;;30.70;70.30;;;;;;5092532;28;20113;-72
2023/10/15 08:17:14;;;;;;;12.20;4.20;;;31.00;69.60;;;;;;5092198;28;20036;-72
2023/10/15 08:19:40;;;;;;;11.77;3.92;;;30.70;70.00;;;;;;5092049;28;20059;-72
2023/10/15 08:22:06;;;;;;;13.98;4.25;;;30.70;69.90;;;;;;5092481;28;20326;-70
2023/10/15 08:24:32;;;;;;;;;;;30.10;70.60;;;;;;5093107;28;20122;-71
2023/10/15 08:26:59;;;;;;;15.15;4.07;;;30.00;71.20;;;;;;5092237;28;19995;-72
2023/10/15 08:29:25;;;;;;;12.43;3.85;;;30.00;71.70;;;;;;5092457;28;20043;-71
2023/10/15 08:31:51;;;;;;;13.98;4.07;;;30.20;72.00;;;;;;5092879;28;20341;-72
2023/10/15 08:34:17;;;;;;;;;;;30.10;72.60;;;;;;5093057;28;20016;-71
2023/10/15 08:36:43;;;;;;;12.38;3.92;;;30.00;73.30;;;;;;5092301;28;19912;-71
2023/10/15 08:39:09;;;;;;;;;;;29.90;74.60;;;;;;5074249;28;20060;-71
2023/10/15 08:41:40;;;;;;;15.07;3.92;;;29.90;75.10;;;;;;5073867;28;19904;-71
2023/10/15 08:44:18;;;;;;;9.25;3.75;;;29.70;76.60;;;;;;5092812;28;20395;-72
2023/10/15 08:46:47;;;;;;;10.82;3.63;;;29.80;77.30;;;;;;5092525;28;20062;-72
2023/10/15 08:49:15;;;;;;;13.25;3.90;;;29.80;79.20;;;;;;5092310;28;20372;-73
2023/10/15 08:51:43;;;;;;;13.02;3.45;;;29.30;82.10;;;;;;5092017;28;20027;-72
2023/10/15 08:54:12;;;;;;;10.85;3.90;;;29.20;82.60;;;;;;5091808;28;20138;-72
2023/10/15 08:56:38;;;;;;;11.68;3.42;;;29.50;84.20;;;;;;5091506;28;20127;-71
2023/10/15 08:59:09;;;;;;;10.90;3.97;;;29.60;86.00;;;;;;5091763;28;20052;-71
2023/10/15 09:01:37;;;;;;;14.38;3.70;;;29.60;87.90;;;;;;5092129;28;20416;-71
2023/10/15 09:04:06;;;;;;;12.32;3.80;;;29.80;89.50;;;;;;5092023;28;20020;-71
2023/10/15 09:06:34;;;;;;;8.27;3.47;;;29.60;90.20;;;;;;5091624;28;20432;-71
2023/10/15 09:09:01;;;;;;;10.90;3.92;;;29.40;90.60;;;;;;5091883;28;20472;-72
2023/10/15 09:11:28;;;;;;;9.95;3.20;;;29.60;90.30;;;;;;5091619;28;20021;-71
2023/10/15 09:13:55;;;;;;;9.82;3.60;;;29.60;89.00;;;;;;5073537;28;20036;-71
2023/10/15 09:16:21;;;;;;;9.75;2.90;;;29.50;89.90;;;;;;5091659;28;20042;-71
2023/10/15 09:18:50;;;;;;;18.23;3.45;;;29.30;89.40;;;;;;5091397;28;20036;-71
2023/10/15 09:21:26;;;;;;;6.90;3.10;;;29.40;88.60;;;;;;5073134;28;20020;-71
2023/10/15 09:23:53;;;;;;;10.35;3.47;;;29.30;88.40;;;;;;5091781;28;20024;-72
2023/10/15 09:26:19;;;;;;;8.60;2.78;;;29.40;89.10;;;;;;5091986;28;20495;-72
2023/10/15 09:28:45;;;;;;;11.23;3.50;;;29.60;89.40;;;;;;5093474;28;20024;-72
2023/10/15 09:31:12;;;;;;;8.80;3.40;;;29.50;90.50;;;;;;5095667;28;20032;-71
2023/10/15 09:33:39;;;;;;;8.18;2.90;;;29.40;91.00;;;;;;5096029;28;20055;-72
2023/10/15 09:36:06;;;;;;;11.60;3.20;;;29.30;91.00;;;;;;5095725;28;20031;-72
2023/10/15 09:38:33;;;;;;;12.15;3.40;;;29.30;91.60;;;;;;5095325;28;20456;-72
2023/10/15 09:41:02;;;;;;;7.15;2.63;;;29.30;92.40;;;;;;5095499;28;20036;-71
2023/10/15 09:43:31;;;;;;;13.82;3.28;;;29.30;93.00;;;;;;5095597;28;20056;-71
2023/10/15 09:46:01;;;;;;;12.25;3.30;;;29.00;93.70;;;;;;5095314;28;20024;-71
2023/10/15 09:48:27;;;;;;;10.45;3.40;;;28.90;94.30;;;;;;5095418;28;20016;-73
2023/10/15 09:50:59;;;;;;;;;;;29.00;93.80;;;;;;5077661;28;20384;-72
2023/10/15 09:53:28;;;;;;;9.20;2.88;;;29.00;93.80;;;;;;5077094;28;19904;-72
2023/10/15 09:55:58;;;;;;;16.15;3.40;;;29.00;90.30;;;;;;5095175;28;20073;-71
2023/10/15 09:58:25;;;;;;;36.20;4.03;;;29.30;82.80;;;;;;5076859;28;20134;-71
2023/10/15 10:01:09;;;;;;;21.30;3.70;;;29.80;81.00;;;;;;5095459;28;20480;-70
2023/10/15 10:03:57;;;;;;;20.65;3.20;;;30.00;80.60;;;;;;5095521;28;20063;-71
2023/10/15 10:06:49;;;;;;;18.40;3.38;;;30.10;79.60;;;;;;5095493;28;20024;-72
2023/10/15 10:09:39;;;;;;;15.60;3.17;;;30.10;85.90;;;;;;5095232;28;20028;-72
2023/10/15 10:12:58;;;;;;;14.68;3.42;;;30.20;84.90;;;;;;5094944;28;20024;-73
2023/10/15 10:15:42;;;;;;;17.33;4.80;;;30.00;90.80;;;;;;5095307;28;20534;-72
2023/10/15 10:18:11;;;;;;;13.98;5.30;;;30.20;88.10;;;;;;5095069;28;20123;-71
2023/10/15 10:20:38;;;;;;;33.50;4.82;;;30.20;86.60;;;;;;5094795;28;20092;-74
2023/10/15 10:23:06;;;;;;;16.30;4.10;;;30.40;82.10;;;;;;5094939;28;20035;-72
2023/10/15 10:25:42;;;;;;;9.00;3.60;;;30.50;78.70;;;;;;5094966;28;20034;-72
2023/10/15 10:28:13;;;;;;;14.43;3.95;;;30.80;78.90;;;;;;5094945;28;20028;-72
2023/10/15 10:31:00;;;;;;;21.48;3.80;;;30.60;77.20;;;;;;5094844;28;20100;-73
2023/10/15 10:33:51;;;;;;;21.83;3.65;;;30.80;77.20;;;;;;5093933;28;20123;-72
2023/10/15 10:36:27;;;;;;;11.70;3.33;;;30.80;76.80;;;;;;5094371;28;20016;-72
2023/10/15 10:39:15;;;;;;;10.70;3.22;;;30.90;77.90;;;;;;5094013;28;20048;-72
2023/10/15 10:41:44;;;;;;;10.60;3.50;;;30.90;78.60;;;;;;5093572;28;20028;-73
2023/10/15 10:44:23;;;;;;;10.35;3.60;;;30.90;78.10;;;;;;5094688;28;20031;-72
2023/10/15 10:46:52;;;;;;;11.18;2.92;;;30.50;79.80;;;;;;5094500;28;20099;-72
2023/10/15 10:49:34;;;;;;;14.18;3.10;;;30.60;79.80;;;;;;5094671;28;20020;-72
2023/10/15 10:52:17;;;;;;;20.92;3.30;;;30.80;80.20;;;;;;5094445;28;20020;-73
2023/10/15 10:54:45;;;;;;;11.25;3.20;;;30.70;80.30;;;;;;5095457;28;20024;-73
2023/10/15 10:57:11;;;;;;;11.85;3.30;;;30.60;80.90;;;;;;5093962;28;20484;-73
2023/10/15 10:59:43;;;;;;;13.93;3.40;;;30.60;81.20;;;;;;5094280;28;20047;-72
2023/10/15 11:02:11;;;;;;;18.95;3.60;;;30.70;81.60;;;;;;5075868;28;20028;-73
2023/10/15 11:04:39;;;;;;;10.07;3.50;;;30.80;81.60;;;;;;5094088;28;20024;-73
2023/10/15 11:07:05;;;;;;;12.95;3.85;;;30.90;80.90;;;;;;5094116;28;20073;-73
2023/10/15 11:09:37;;;;;;;12.18;3.70;;;31.00;80.40;;;;;;5094017;28;20027;-72
2023/10/15 11:12:04;;;;;;;8.63;3.50;;;31.20;79.70;;;;;;5093819;28;20383;-72
2023/10/15 11:14:30;;;;;;;10.70;3.60;;;31.40;79.00;;;;;;5094037;28;20023;-73
2023/10/15 11:16:57;;;;;;;17.25;4.10;;;31.20;80.80;;;;;;5075788;28;20077;-72
2023/10/15 11:19:25;;;;;;;15.90;3.53;;;31.20;81.40;;;;;;5093780;28;20020;-73
2023/10/15 11:21:52;;;;;;;13.05;2.97;;;31.20;81.30;;;;;;5093512;28;20020;-73
2023/10/15 11:24:23;;;;;;;12.75;3.50;;;31.10;81.50;;;;;;5093524;28;20020;-73
2023/10/15 11:26:50;;;;;;;16.35;4.70;;;31.20;84.30;;;;;;5075119;28;20068;-72
2023/10/15 11:29:22;;;;;;;12.43;5.80;;;31.10;85.90;;;;;;5093646;28;20508;-72
2023/10/15 11:31:51;;;;;;;13.35;4.13;;;31.20;87.90;;;;;;5093524;28;20107;-72
2023/10/15 11:34:20;;;;;;;27.23;7.47;;;31.40;89.40;;;;;;5075197;28;20130;-72
2023/10/15 11:36:49;;;;;;;16.20;4.75;;;31.30;90.60;;;;;;5093219;28;20093;-72
2023/10/15 11:39:25;;;;;;;17.08;3.85;;;31.10;91.10;;;;;;5093417;28;20132;-71
2023/10/15 11:41:57;;;;;;;17.13;4.68;;;31.20;91.20;;;;;;5093348;28;20035;-71
2023/10/15 11:44:26;;;;;;;22.23;6.20;;;31.40;91.50;;;;;;5093452;28;20024;-72
2023/10/15 11:46:55;;;;;;;11.70;4.45;;;31.40;91.60;;;;;;5093271;28;20118;-72
2023/10/15 11:49:24;;;;;;;22.25;9.52;;;31.20;91.90;;;;;;5093153;28;20413;-72
2023/10/15 11:51:56;;;;;;;15.05;6.18;;;31.30;92.50;;;;;;5093217;28;20035;-72
2023/10/15 11:54:30;;;;;;;15.13;6.00;;;31.20;92.30;;;;;;5073985;28;20027;-72
2023/10/15 11:57:00;;;;;;;13.40;4.32;;;31.00;92.50;;;;;;5092839;28;20115;-72
2023/10/15 11:59:27;;;;;;;19.92;8.38;;;31.00;92.40;;;;;;5092848;28;20505;-72
2023/10/15 12:01:54;;;;;;;17.30;4.90;;;31.00;92.60;;;;;;5074692;28;20020;-72
2023/10/15 12:04:23;;;;;;;17.40;5.35;;;30.90;92.50;;;;;;5092880;28;20081;-72
2023/10/15 12:06:49;;;;;;;13.30;3.88;;;31.10;92.50;;;;;;5092979;28;20510;-72
2023/10/15 12:09:24;;;;;;;24.75;5.80;;;30.80;92.80;;;;;;5093068;28;20039;-72
2023/10/15 12:11:51;;;;;;;9.38;5.38;;;31.00;93.50;;;;;;5093059;28;20104;-72
2023/10/15 12:14:18;;;;;;;10.02;3.92;;;31.10;93.90;;;;;;5093128;28;20105;-72
2023/10/15 12:16:44;;;;;;;11.68;3.90;;;30.90;94.10;;;;;;5092693;28;20020;-72
2023/10/15 12:19:11;;;;;;;15.23;5.57;;;30.80;94.20;;;;;;5094158;28;20411;-72
2023/10/15 12:21:38;;;;;;;17.38;5.82;;;30.80;93.90;;;;;;5095308;28;20026;-72
2023/10/15 12:24:13;;;;;;;12.48;3.67;;;30.70;94.50;;;;;;5092717;28;20479;-72
2023/10/15 12:26:40;;;;;;;12.60;3.65;;;30.90;95.10;;;;;;5092438;28;20024;-73
2023/10/15 12:29:06;;;;;;;12.10;3.72;;;31.00;95.30;;;;;;5092478;28;20020;-72
2023/10/15 12:31:33;;;;;;;8.50;3.40;;;31.00;95.60;;;;;;5092634;28;20101;-72
2023/10/15 12:34:00;;;;;;;14.05;3.65;;;31.10;95.20;;;;;;5092299;28;20036;-72
2023/10/15 12:36:28;;;;;;;13.60;3.80;;;31.10;94.10;;;;;;5092235;28;20545;-72
2023/10/15 12:38:56;;;;;;;13.77;3.63;;;30.90;94.30;;;;;;5092018;28;20551;-72
2023/10/15 12:41:25;;;;;;;10.00;3.63;;;30.90;94.30;;;;;;5092001;28;20013;-72
2023/10/15 12:43:58;;;;;;;11.07;3.85;;;30.90;94.60;;;;;;5073895;28;20028;-73
2023/10/15 12:46:26;;;;;;;15.35;3.67;;;30.80;94.80;;;;;;5092145;28;20185;-73
2023/10/15 12:48:52;;;;;;;12.20;3.35;;;30.80;95.30;;;;;;5092202;28;20012;-72
2023/10/15 12:51:19;;;;;;;;;;;30.80;95.20;;;;;;5092190;28;20119;-72
2023/10/15 12:53:46;;;;;;;19.40;4.13;;;31.00;95.50;;;;;;5073844;28;19904;-72
2023/10/15 12:56:12;;;;;;;13.75;3.60;;;31.10;96.10;;;;;;5091378;28;20028;-71
2023/10/15 12:58:38;;;;;;;14.27;3.95;;;30.90;96.10;;;;;;5091515;28;20032;-72
2023/10/15 13:01:05;;;;;;;15.63;3.80;;;31.00;96.40;;;;;;5091650;28;20446;-72
2023/10/15 13:03:33;;;;;;;16.20;3.17;;;30.90;95.90;;;;;;5091609;28;20035;-72
2023/10/15 13:06:00;;;;;;;9.98;3.58;;;31.10;96.10;;;;;;5091626;28;20023;-73
2023/10/15 13:08:26;;;;;;;12.80;3.70;;;30.90;95.90;;;;;;5091377;28;20026;-71
2023/10/15 13:10:52;;;;;;;;;;;30.70;95.40;;;;;;5092219;28;20051;-72
2023/10/15 13:13:18;;;;;;;18.58;5.10;;;30.70;95.90;;;;;;5091348;28;19904;-71